Terminal Aerodrome Forecast
Issued by NWS

Home | Current Version | Previous Version | Text Only | Print | Product List | Glossary On
Versions: 1 2 3 4 5 6 7 8 9 10 11 12 13 14 15 16 17 18 19 20 21 22 23 24 25 26 27 28 29
000
FTUS45 KCYS 231738
TAFAIA
TAF
KAIA 231738Z 2318/2418 10007KT 2SM BR OVC004
      TEMPO 2318/2322 1SM -RA BR OVC003
     FM232200 07004KT 6SM BR OVC010
     FM240200 32005KT 2SM BR OVC025
     FM241100 VRB03KT 1SM BR BKN007=

USA.gov is the U.S. government's official web portal to all federal, state and local government web resources and services.